Huvudsida
METAR-TAF:

METAR-TAF

Flygplatser :

Sogndals flygplats. Haukåsen

Sogndals, Norge

latitud: 61-09N, longitud: 007-08E, höjd: 49 m

Aktuellt väderrapport

Denna rapport gjordes för 47 minuter sedan, klockan 05:50 UTC
Vind 10 kt från väst
Temperatur 6°C
Fuktighet 75%
Tryck 1007 hPa
Sikt 10 km eller mer
Få moln på en höjd av 2000 ft
Spridda moln på en höjd av 5000 ft

METAR: ENSG 210550Z 26010KT 9999 FEW020 SCT050 06/02 Q1007 RMK WIND 3806FT 27011KT

Tid: 08:37 (06:37 UTC)


TAF: saknas

Aktuella väderrapporter och prognoser från 4000 flygplatser (METAR- och TAF-rapporter).

De tillgängliga stationerna syns som gula och röda prickar på kartan.

För musen över prickarna för att se namnen på stationerna.

Klicka sedan för att få väderrapporter och prognoser.

För att ändra kartan: Klicka på de gröna knapparna med ett svart kors på för att zooma in; den gröna knappen med ett streck på för att zooma ut; eller på de gröna pilarna för angränsande kartor.


METAR-TAF: